Time;durP1;ratioP1;P1;durP2;ratioP2;P2;SDS_P1;SDS_P2;PMS_P1;PMS_P2;Temp;Humidity;BMP_temperature;BMP_pressure;BME280_temperature;BME280_humidity;BME280_pressure;Samples;Min_cycle;Max_cycle;Signal;HPM_P1;HPM_P2
2023/01/05 00:01:29;;;;;;;6.60;1.45;;;9.60;99.90;;;;;;5045536;28;20446;-64
2023/01/05 00:03:55;;;;;;;32.75;5.57;;;9.60;99.90;;;;;;5037702;28;20500;-65
2023/01/05 00:06:21;;;;;;;17.30;3.17;;;9.60;99.90;;;;;;5042828;28;20127;-63
2023/01/05 00:08:47;;;;;;;14.27;3.00;;;9.60;99.90;;;;;;5043622;28;20044;-63
2023/01/05 00:22:33;;;;;;;10.68;2.42;;;9.50;99.90;;;;;;5045924;28;20120;-63
2023/01/05 00:25:05;;;;;;;25.77;5.05;;;9.50;99.90;;;;;;5027590;28;20053;-63
2023/01/05 00:27:32;;;;;;;11.93;1.95;;;9.50;99.90;;;;;;5046771;28;20045;-64
2023/01/05 00:29:58;;;;;;;34.33;5.40;;;9.50;99.90;;;;;;5023233;28;20114;-78
2023/01/05 00:32:26;;;;;;;34.53;4.63;;;9.50;99.90;;;;;;5027464;28;20072;-64
2023/01/05 00:34:56;;;;;;;31.88;5.22;;;9.50;99.90;;;;;;5045927;28;20190;-82
2023/01/05 00:37:27;;;;;;;8.93;1.67;;;9.50;99.90;;;;;;5027982;28;20460;-64
2023/01/05 00:39:53;;;;;;;32.40;4.82;;;9.50;99.90;;;;;;5046610;28;20052;-64
2023/01/05 00:42:19;;;;;;;17.48;2.78;;;9.50;99.90;;;;;;5034967;28;20045;-63
2023/01/05 00:44:45;;;;;;;5.30;1.52;;;9.50;99.90;;;;;;5046739;28;20037;-75
2023/01/05 00:47:11;;;;;;;18.13;3.22;;;9.50;99.90;;;;;;5044921;28;20041;-63
2023/01/05 00:49:36;;;;;;;9.70;2.45;;;9.50;99.90;;;;;;5046008;28;20369;-63
2023/01/05 00:52:04;;;;;;;18.25;2.40;;;9.60;99.90;;;;;;5037033;28;20345;-68
2023/01/05 00:54:30;;;;;;;7.43;2.17;;;9.50;99.90;;;;;;5045688;28;20576;-64
2023/01/05 00:56:56;;;;;;;7.05;1.50;;;9.60;99.90;;;;;;5045459;28;20045;-63
2023/01/05 00:59:22;;;;;;;19.08;3.80;;;9.60;99.90;;;;;;5045238;28;20683;-81
2023/01/05 01:01:49;;;;;;;15.25;2.38;;;9.60;99.90;;;;;;5043901;28;20095;-64
2023/01/05 01:04:15;;;;;;;5.32;1.48;;;9.60;99.90;;;;;;5044754;28;20104;-63
2023/01/05 01:06:41;;;;;;;21.33;4.15;;;9.50;99.90;;;;;;5046485;28;20386;-73
2023/01/05 01:09:08;;;;;;;11.63;2.58;;;9.50;99.90;;;;;;5045399;28;20041;-63
2023/01/05 01:11:34;;;;;;;12.73;2.35;;;9.50;99.90;;;;;;5033527;28;20037;-63
2023/01/05 01:14:00;;;;;;;22.05;3.53;;;9.50;99.90;;;;;;5045605;28;20037;-74
2023/01/05 01:16:26;;;;;;;17.17;2.85;;;9.50;99.90;;;;;;5027382;28;20053;-63
2023/01/05 01:18:51;;;;;;;29.90;4.15;;;9.40;99.90;;;;;;5045981;28;20056;-63
2023/01/05 01:21:17;;;;;;;33.70;5.82;;;9.40;99.90;;;;;;5043946;28;20127;-64
2023/01/05 01:23:43;;;;;;;15.00;2.80;;;9.40;99.90;;;;;;5046071;28;20487;-76
2023/01/05 01:26:11;;;;;;;12.55;2.72;;;9.40;99.90;;;;;;5020866;28;20128;-64
2023/01/05 01:28:37;;;;;;;23.80;3.80;;;9.40;99.90;;;;;;5046151;28;20124;-89
2023/01/05 01:31:04;;;;;;;23.08;2.85;;;9.40;99.90;;;;;;5037015;28;20395;-64
2023/01/05 01:33:32;;;;;;;18.52;3.40;;;9.40;99.90;;;;;;5048367;28;20055;-64
2023/01/05 01:36:03;;;;;;;9.82;2.40;;;9.40;99.90;;;;;;5049582;28;20045;-86
2023/01/05 01:38:29;;;;;;;13.45;3.03;;;9.40;99.90;;;;;;5048585;28;20045;-63
2023/01/05 01:40:54;;;;;;;8.75;1.83;;;9.50;99.90;;;;;;5049547;28;20044;-90
2023/01/05 01:43:39;;;;;;;29.10;4.80;;;9.50;99.90;;;;;;5048273;28;20440;-63
2023/01/05 01:46:06;;;;;;;8.95;1.17;;;9.50;99.90;;;;;;5049752;28;20241;-63
2023/01/05 01:48:33;;;;;;;33.22;5.70;;;9.50;99.90;;;;;;5036249;28;20054;-64
2023/01/05 01:51:03;;;;;;;44.35;6.05;;;9.50;99.90;;;;;;5042870;28;20462;-63
2023/01/05 01:53:32;;;;;;;;;;;9.50;99.90;;;;;;5049791;28;20044;-63
2023/01/05 01:56:01;;;;;;;28.65;4.78;;;9.50;99.90;;;;;;5048409;28;19924;-63
2023/01/05 01:58:29;;;;;;;21.95;3.20;;;9.50;99.90;;;;;;5049678;28;20048;-64
2023/01/05 02:00:57;;;;;;;38.75;5.50;;;9.50;99.90;;;;;;5033565;28;20502;-63
2023/01/05 02:03:24;;;;;;;31.85;6.47;;;9.50;99.90;;;;;;5041553;28;20044;-72
2023/01/05 02:05:50;;;;;;;14.45;2.75;;;9.60;99.90;;;;;;5047123;28;20032;-63
2023/01/05 02:08:24;;;;;;;26.83;4.00;;;9.50;99.90;;;;;;5031136;28;20060;-63
2023/01/05 02:11:27;;;;;;;32.72;6.45;;;9.50;99.90;;;;;;5053265;28;20052;-64
2023/01/05 02:14:11;;;;;;;22.00;4.13;;;9.60;99.90;;;;;;5048384;28;20041;-64
2023/01/05 02:16:59;;;;;;;28.92;5.80;;;9.50;99.90;;;;;;5044707;28;20064;-63
2023/01/05 02:20:01;;;;;;;30.50;5.43;;;9.60;99.90;;;;;;5048749;28;20049;-63
2023/01/05 02:22:59;;;;;;;28.27;5.35;;;9.60;99.90;;;;;;5047754;28;20060;-64
2023/01/05 02:25:59;;;;;;;20.13;3.38;;;9.60;99.90;;;;;;5048703;28;20080;-63
2023/01/05 02:28:45;;;;;;;34.93;5.83;;;9.60;99.90;;;;;;5048121;28;20135;-63
2023/01/05 02:31:20;;;;;;;18.48;3.83;;;9.60;99.90;;;;;;5047325;28;20296;-64
2023/01/05 02:34:08;;;;;;;23.65;2.95;;;9.60;99.90;;;;;;5048607;28;20045;-67
2023/01/05 02:36:49;;;;;;;33.63;7.47;;;9.60;99.90;;;;;;5048011;28;20044;-64
2023/01/05 02:39:25;;;;;;;30.60;7.10;;;9.60;99.90;;;;;;5040771;28;20053;-64
2023/01/05 02:42:00;;;;;;;30.05;6.38;;;9.60;99.90;;;;;;5030592;28;20071;-79
2023/01/05 02:44:30;;;;;;;19.85;4.30;;;9.60;99.90;;;;;;5047443;28;20725;-63
2023/01/05 02:47:23;;;;;;;34.00;5.53;;;9.60;99.90;;;;;;5048631;28;20040;-64
2023/01/05 02:49:55;;;;;;;25.45;4.93;;;9.60;99.90;;;;;;5038028;28;20144;-68
2023/01/05 02:52:21;;;;;;;31.40;5.53;;;9.70;99.90;;;;;;5047617;28;20049;-63
2023/01/05 02:54:59;;;;;;;28.48;5.82;;;9.60;99.90;;;;;;5048653;28;20131;-63
2023/01/05 02:57:46;;;;;;;35.50;5.88;;;9.70;99.90;;;;;;5047126;28;20664;-63
2023/01/05 03:00:42;;;;;;;33.28;6.00;;;9.70;99.90;;;;;;5047937;28;20127;-63
2023/01/05 03:03:17;;;;;;;25.88;4.78;;;9.70;99.90;;;;;;5045385;28;20146;-63
2023/01/05 03:05:53;;;;;;;29.23;5.03;;;9.60;99.90;;;;;;5016073;28;20374;-63
2023/01/05 03:08:21;;;;;;;29.23;6.00;;;9.50;99.90;;;;;;5047262;28;20044;-63
2023/01/05 03:14:06;;;;;;;27.77;4.20;;;9.50;99.90;;;;;;5046911;28;20089;-63
2023/01/05 03:16:35;;;;;;;31.23;5.50;;;9.50;99.90;;;;;;5035586;28;20056;-74
2023/01/05 03:35:54;;;;;;;34.78;5.35;;;9.60;99.90;;;;;;5046248;28;20091;-83
2023/01/05 03:38:41;;;;;;;33.33;6.97;;;9.60;99.90;;;;;;5009924;28;20131;-71
2023/01/05 03:41:11;;;;;;;31.92;5.18;;;9.60;99.90;;;;;;5040131;28;20039;-70
2023/01/05 03:43:38;;;;;;;16.02;3.35;;;9.60;99.90;;;;;;5046692;28;20060;-63
2023/01/05 03:46:19;;;;;;;34.08;6.40;;;9.60;99.90;;;;;;5047449;28;20110;-64
2023/01/05 03:48:46;;;;;;;32.22;5.88;;;9.60;99.90;;;;;;5045494;28;20102;-73
2023/01/05 03:51:13;;;;;;;23.65;4.75;;;9.60;99.90;;;;;;5049994;28;20087;-83
2023/01/05 03:53:39;;;;;;;39.83;6.55;;;9.60;99.90;;;;;;5047112;28;20076;-63
2023/01/05 03:56:05;;;;;;;34.92;5.97;;;9.60;99.90;;;;;;5047927;28;20126;-64
2023/01/05 03:58:31;;;;;;;14.68;3.05;;;9.50;99.90;;;;;;5047434;28;20029;-63
2023/01/05 04:00:57;;;;;;;31.30;5.03;;;9.50;99.90;;;;;;5047344;28;20052;-63
2023/01/05 04:03:22;;;;;;;30.98;6.07;;;9.60;99.90;;;;;;5043056;28;20041;-63
2023/01/05 04:05:48;;;;;;;38.53;8.25;;;9.60;99.90;;;;;;5045330;28;20549;-63
2023/01/05 04:08:14;;;;;;;37.85;6.47;;;9.60;99.90;;;;;;5029591;28;20132;-63
2023/01/05 04:10:39;;;;;;;45.17;7.15;;;9.60;99.90;;;;;;5027297;28;20396;-64
2023/01/05 04:13:06;;;;;;;45.35;7.05;;;9.60;99.90;;;;;;5029010;28;20461;-63
2023/01/05 04:15:32;;;;;;;36.85;6.97;;;9.50;99.90;;;;;;5028492;28;20061;-64
2023/01/05 04:17:57;;;;;;;26.90;4.60;;;9.50;99.90;;;;;;5027428;28;20049;-63
2023/01/05 04:20:24;;;;;;;37.53;6.70;;;9.50;99.90;;;;;;5045177;28;20056;-63
2023/01/05 04:22:49;;;;;;;37.75;6.13;;;9.50;99.90;;;;;;5044064;28;20502;-63
2023/01/05 04:25:15;;;;;;;50.25;7.60;;;9.50;99.90;;;;;;5046685;28;20045;-63
2023/01/05 04:27:41;;;;;;;41.22;5.35;;;9.50;99.90;;;;;;5026408;28;20126;-64
2023/01/05 04:30:08;;;;;;;43.08;7.15;;;9.60;99.90;;;;;;5046461;28;20067;-66
2023/01/05 04:32:34;;;;;;;40.85;6.78;;;9.60;99.90;;;;;;5045145;28;20037;-63
2023/01/05 04:35:00;;;;;;;36.42;6.75;;;9.50;99.90;;;;;;5011149;28;20098;-63
2023/01/05 04:37:25;;;;;;;38.28;6.32;;;9.60;99.90;;;;;;5022554;28;20419;-63
2023/01/05 04:39:51;;;;;;;40.85;6.22;;;9.60;99.90;;;;;;5016983;28;20045;-63
2023/01/05 04:42:17;;;;;;;42.67;6.47;;;9.60;99.90;;;;;;5046223;28;20044;-64
2023/01/05 04:44:43;;;;;;;53.70;6.70;;;9.50;99.90;;;;;;5026855;28;20364;-64
2023/01/05 04:47:09;;;;;;;50.28;7.75;;;9.50;99.90;;;;;;5040060;28;20052;-66
2023/01/05 04:49:35;;;;;;;54.42;8.40;;;9.50;99.90;;;;;;5038459;28;20056;-64
2023/01/05 04:52:01;;;;;;;41.72;7.55;;;9.40;99.90;;;;;;5046152;28;20049;-64
2023/01/05 04:54:26;;;;;;;42.42;7.60;;;9.40;99.90;;;;;;5010738;28;20049;-64
2023/01/05 04:56:53;;;;;;;38.53;6.32;;;9.40;99.90;;;;;;5041063;28;20037;-64
2023/01/05 04:59:19;;;;;;;35.33;6.47;;;9.40;99.90;;;;;;5045611;28;20088;-64
2023/01/05 05:01:44;;;;;;;42.70;5.82;;;9.40;99.90;;;;;;5042913;28;20100;-77
2023/01/05 05:04:10;;;;;;;31.25;6.05;;;9.40;99.90;;;;;;5046050;28;20048;-64
2023/01/05 05:06:36;;;;;;;52.60;8.23;;;9.40;99.90;;;;;;5019175;28;20041;-86
2023/01/05 05:09:02;;;;;;;40.65;7.32;;;9.40;99.90;;;;;;5017435;28;20041;-64
2023/01/05 05:11:28;;;;;;;40.67;6.60;;;9.50;99.90;;;;;;5045108;28;20048;-85
2023/01/05 05:13:53;;;;;;;42.90;6.35;;;9.50;99.90;;;;;;5045787;28;20041;-63
2023/01/05 05:16:19;;;;;;;39.05;7.03;;;9.50;99.90;;;;;;5038889;28;20534;-63
2023/01/05 05:18:45;;;;;;;38.63;8.25;;;9.50;99.90;;;;;;5053814;28;20037;-84
2023/01/05 05:21:10;;;;;;;32.72;7.25;;;9.50;99.90;;;;;;5027296;28;20064;-63
2023/01/05 05:23:36;;;;;;;40.72;7.50;;;9.50;99.90;;;;;;5045382;28;20080;-82
2023/01/05 05:26:02;;;;;;;42.55;7.30;;;9.50;99.90;;;;;;5044376;28;20037;-77
2023/01/05 05:28:28;;;;;;;44.00;7.07;;;9.40;99.90;;;;;;5037947;28;20179;-64
2023/01/05 05:30:57;;;;;;;49.70;8.38;;;9.40;99.90;;;;;;5044663;28;20037;-68
2023/01/05 05:33:24;;;;;;;43.10;8.80;;;9.40;99.90;;;;;;5014207;28;20068;-82
2023/01/05 05:35:51;;;;;;;43.53;6.85;;;9.40;99.90;;;;;;5045006;28;20052;-63
2023/01/05 05:38:16;;;;;;;39.20;6.57;;;9.40;99.90;;;;;;5034252;28;20072;-84
2023/01/05 05:40:42;;;;;;;42.72;7.78;;;9.40;99.90;;;;;;5024084;28;20095;-64
2023/01/05 05:43:08;;;;;;;35.63;6.03;;;9.40;99.90;;;;;;5042211;28;20155;-77
2023/01/05 05:45:33;;;;;;;39.85;7.43;;;9.40;99.90;;;;;;5044938;28;20057;-63
2023/01/05 05:48:01;;;;;;;44.05;7.95;;;9.40;99.90;;;;;;5036885;28;20038;-68
2023/01/05 05:50:27;;;;;;;44.25;7.43;;;9.40;99.90;;;;;;5044844;28;20479;-63
2023/01/05 05:52:52;;;;;;;39.65;6.30;;;9.40;99.90;;;;;;5045438;28;20076;-63
2023/01/05 05:55:18;;;;;;;34.30;6.15;;;9.40;99.90;;;;;;5044873;28;20045;-84
2023/01/05 05:57:44;;;;;;;31.88;5.03;;;9.50;99.90;;;;;;5043360;28;20038;-67
2023/01/05 06:00:10;;;;;;;32.53;5.78;;;9.50;99.90;;;;;;5042133;28;20036;-63
2023/01/05 06:02:38;;;;;;;34.65;6.68;;;9.50;99.90;;;;;;5039110;28;20048;-67
2023/01/05 06:05:04;;;;;;;36.00;6.18;;;9.50;99.90;;;;;;5045243;28;20048;-64
2023/01/05 06:07:30;;;;;;;37.50;6.82;;;9.50;99.90;;;;;;5044397;28;20537;-63
2023/01/05 06:09:56;;;;;;;34.13;6.25;;;9.50;99.90;;;;;;5043149;28;20060;-64
2023/01/05 06:12:22;;;;;;;34.05;6.05;;;9.50;99.90;;;;;;5044346;28;20473;-64
2023/01/05 06:14:47;;;;;;;41.65;6.93;;;9.50;99.90;;;;;;5027803;28;20067;-63
2023/01/05 06:17:13;;;;;;;34.75;6.03;;;9.50;99.90;;;;;;5027587;28;20060;-64
2023/01/05 06:19:39;;;;;;;47.15;6.65;;;9.50;99.90;;;;;;5027150;28;20044;-66
2023/01/05 06:22:04;;;;;;;31.92;5.32;;;9.50;99.90;;;;;;5048422;28;20517;-63
2023/01/05 06:24:31;;;;;;;46.72;6.88;;;9.40;99.90;;;;;;5047892;28;20033;-63
2023/01/05 06:26:56;;;;;;;37.97;5.57;;;9.50;99.90;;;;;;5048766;28;20056;-65
2023/01/05 06:29:22;;;;;;;42.55;6.28;;;9.40;99.90;;;;;;5046150;28;20033;-63
2023/01/05 06:31:48;;;;;;;43.92;6.10;;;9.50;99.90;;;;;;5048122;28;20041;-63
2023/01/05 06:34:14;;;;;;;40.58;6.93;;;9.40;99.90;;;;;;5047776;28;20049;-83
2023/01/05 06:36:39;;;;;;;42.35;7.13;;;9.40;99.90;;;;;;5048164;28;20044;-64
2023/01/05 06:39:05;;;;;;;42.60;6.75;;;9.40;99.90;;;;;;5048339;28;20135;-64
2023/01/05 06:41:34;;;;;;;48.20;6.68;;;9.40;99.90;;;;;;5029859;28;20396;-63
2023/01/05 06:44:00;;;;;;;38.65;6.78;;;9.50;99.90;;;;;;5048836;28;20406;-86
2023/01/05 06:46:26;;;;;;;46.78;6.63;;;9.40;99.90;;;;;;5047640;28;20102;-84
2023/01/05 06:48:51;;;;;;;36.90;6.70;;;9.50;99.90;;;;;;5048612;28;20061;-64
2023/01/05 06:51:18;;;;;;;48.78;6.30;;;9.40;99.90;;;;;;5045696;28;20068;-88
2023/01/05 06:53:45;;;;;;;52.55;9.15;;;9.40;99.90;;;;;;5034308;28;20049;-63
2023/01/05 06:56:10;;;;;;;47.97;8.40;;;9.40;99.90;;;;;;5047336;28;20060;-63
2023/01/05 06:58:36;;;;;;;45.95;7.50;;;9.40;99.90;;;;;;5047801;28;20126;-70
2023/01/05 07:01:02;;;;;;;32.92;6.57;;;9.40;99.90;;;;;;5027189;28;20048;-74
2023/01/05 07:03:28;;;;;;;43.05;7.38;;;9.40;99.90;;;;;;5025541;28;20060;-70
2023/01/05 07:05:54;;;;;;;45.88;7.90;;;9.40;99.90;;;;;;5048406;28;20049;-63
2023/01/05 07:08:19;;;;;;;38.78;5.85;;;9.40;99.90;;;;;;5046456;28;20045;-63
2023/01/05 07:10:46;;;;;;;48.00;10.20;;;9.30;99.90;;;;;;5048372;28;20399;-79
2023/01/05 07:13:11;;;;;;;47.30;8.73;;;9.30;99.90;;;;;;5039712;28;20049;-63
2023/01/05 07:15:37;;;;;;;49.55;10.93;;;9.30;99.90;;;;;;5029805;28;20040;-80
2023/01/05 07:18:03;;;;;;;61.33;14.68;;;9.30;99.90;;;;;;5047283;28;20047;-71
2023/01/05 07:20:28;;;;;;;67.10;16.52;;;9.20;99.90;;;;;;5009374;28;20064;-77
2023/01/05 07:22:54;;;;;;;40.40;8.60;;;9.20;99.90;;;;;;5041794;28;20041;-65
2023/01/05 07:25:20;;;;;;;49.17;8.82;;;9.20;99.90;;;;;;5046521;28;20128;-64
2023/01/05 07:27:50;;;;;;;43.25;11.13;;;9.10;99.90;;;;;;5029928;28;20056;-62
2023/01/05 07:30:17;;;;;;;40.03;9.25;;;9.10;99.90;;;;;;5045582;28;20129;-63
2023/01/05 07:32:43;;;;;;;44.05;8.00;;;9.00;99.90;;;;;;5027989;28;20084;-65
2023/01/05 07:35:08;;;;;;;26.55;4.63;;;9.00;99.90;;;;;;5046640;28;20064;-65
2023/01/05 07:37:34;;;;;;;42.58;9.93;;;9.00;99.90;;;;;;5046792;28;20045;-65
2023/01/05 07:40:00;;;;;;;26.52;8.82;;;8.90;99.90;;;;;;5029542;28;20045;-72
2023/01/05 07:42:26;;;;;;;38.42;10.05;;;8.90;99.90;;;;;;5046570;28;20037;-74
2023/01/05 07:44:52;;;;;;;48.83;14.40;;;8.90;99.90;;;;;;5017161;28;20400;-64
2023/01/05 07:47:17;;;;;;;28.08;5.70;;;8.90;99.90;;;;;;5046228;28;20052;-65
2023/01/05 07:49:43;;;;;;;41.85;13.20;;;8.90;99.90;;;;;;5046992;28;20488;-84
2023/01/05 07:52:09;;;;;;;39.15;8.30;;;8.90;99.90;;;;;;5041692;28;20037;-65
2023/01/05 07:54:35;;;;;;;34.83;8.55;;;8.90;99.90;;;;;;5046982;28;20514;-62
2023/01/05 07:57:01;;;;;;;29.25;6.05;;;8.90;99.90;;;;;;5046608;28;20084;-72
2023/01/05 07:59:27;;;;;;;42.30;7.97;;;8.90;99.90;;;;;;5041183;28;20138;-68
2023/01/05 08:01:53;;;;;;;38.50;8.18;;;8.90;99.90;;;;;;5044735;28;20475;-62
2023/01/05 08:04:18;;;;;;;38.67;8.45;;;8.90;99.90;;;;;;5045314;28;20056;-63
2023/01/05 08:06:44;;;;;;;33.00;6.90;;;8.80;99.90;;;;;;5043002;28;20045;-62
2023/01/05 08:11:54;;;;;;;31.83;7.63;;;8.70;99.90;;;;;;5044168;28;20049;-63
2023/01/05 08:14:21;;;;;;;30.60;9.18;;;8.80;99.90;;;;;;5043565;28;20040;-63
2023/01/05 08:16:47;;;;;;;22.35;5.13;;;8.70;99.90;;;;;;5044901;28;20411;-63
2023/01/05 08:19:13;;;;;;;10.07;2.97;;;8.70;99.90;;;;;;5026903;28;20053;-62
2023/01/05 08:21:39;;;;;;;9.77;3.65;;;8.60;99.90;;;;;;5044259;28;20051;-63
2023/01/05 08:24:05;;;;;;;10.85;5.63;;;8.60;99.90;;;;;;5044852;28;20124;-62
2023/01/05 08:26:31;;;;;;;15.82;5.85;;;8.50;99.90;;;;;;5043620;28;20041;-79
2023/01/05 08:28:58;;;;;;;18.92;6.90;;;8.50;99.90;;;;;;5046507;28;20044;-63
2023/01/05 08:31:27;;;;;;;15.13;6.07;;;8.50;99.90;;;;;;5045260;28;20045;-62
2023/01/05 08:33:58;;;;;;;15.98;5.80;;;8.60;99.90;;;;;;5046028;28;20044;-63
2023/01/05 08:36:25;;;;;;;8.00;2.88;;;8.60;99.90;;;;;;5043680;28;20055;-63
2023/01/05 08:38:52;;;;;;;9.52;5.97;;;8.60;99.90;;;;;;5039323;28;20047;-62
2023/01/05 08:41:26;;;;;;;15.07;7.32;;;8.60;99.90;;;;;;5045583;28;20052;-63
2023/01/05 08:43:54;;;;;;;13.90;8.73;;;8.60;99.90;;;;;;5045496;28;20041;-84
2023/01/05 08:46:23;;;;;;;13.30;5.45;;;8.60;99.90;;;;;;5045630;28;20540;-62
2023/01/05 08:48:51;;;;;;;15.73;5.72;;;8.50;99.90;;;;;;5044780;28;20060;-62
2023/01/05 08:51:18;;;;;;;14.10;3.22;;;8.50;99.90;;;;;;5050373;28;20060;-62
2023/01/05 08:53:44;;;;;;;12.40;3.50;;;8.50;99.90;;;;;;5045699;28;20037;-62
2023/01/05 08:56:10;;;;;;;19.35;6.78;;;8.50;99.90;;;;;;5026042;28;20175;-63
2023/01/05 08:58:40;;;;;;;18.92;6.57;;;8.50;99.90;;;;;;5034681;28;20116;-62
2023/01/05 09:01:17;;;;;;;23.95;10.73;;;8.60;99.90;;;;;;5043609;28;20198;-62
2023/01/05 09:03:43;;;;;;;25.80;5.75;;;8.60;99.90;;;;;;5046118;28;20060;-62
2023/01/05 09:06:11;;;;;;;19.27;8.23;;;8.70;99.90;;;;;;5028500;28;20049;-63
2023/01/05 09:08:38;;;;;;;19.70;3.83;;;8.80;99.90;;;;;;5047359;28;20059;-62
2023/01/05 09:11:16;;;;;;;17.27;2.90;;;9.00;99.90;;;;;;5041753;28;20077;-63
2023/01/05 09:13:46;;;;;;;23.27;3.97;;;9.10;99.90;;;;;;5018525;28;20056;-63
2023/01/05 09:16:14;;;;;;;;;;;9.00;99.90;;;;;;5026334;28;20499;-69
2023/01/05 09:18:41;;;;;;;27.83;8.85;;;9.00;99.90;;;;;;5038473;28;19925;-62
2023/01/05 09:21:08;;;;;;;19.48;3.72;;;9.00;99.90;;;;;;5043010;28;20051;-62
2023/01/05 09:23:35;;;;;;;21.58;3.85;;;9.00;99.90;;;;;;5043980;28;20045;-63
2023/01/05 09:26:12;;;;;;;19.13;3.20;;;9.10;99.90;;;;;;5043132;28;20740;-67
2023/01/05 09:28:39;;;;;;;25.60;3.78;;;9.10;99.90;;;;;;5043647;28;20033;-69
2023/01/05 09:31:19;;;;;;;19.92;2.92;;;9.20;99.90;;;;;;5041372;28;20103;-62
2023/01/05 09:33:46;;;;;;;36.78;9.30;;;9.20;99.90;;;;;;5044721;28;20517;-62
2023/01/05 09:36:14;;;;;;;36.05;7.75;;;9.30;99.90;;;;;;5025777;28;20411;-63
2023/01/05 09:38:40;;;;;;;36.67;9.80;;;9.20;99.90;;;;;;5043286;28;20048;-63
2023/01/05 09:41:19;;;;;;;35.75;6.45;;;9.20;99.90;;;;;;5025326;28;20045;-62
2023/01/05 09:43:46;;;;;;;30.85;5.05;;;9.30;99.90;;;;;;5040303;28;20986;-62
2023/01/05 09:46:18;;;;;;;28.95;6.70;;;9.20;99.90;;;;;;5031423;28;20396;-66
2023/01/05 09:48:48;;;;;;;31.48;5.72;;;9.20;99.90;;;;;;5040842;28;20496;-62
2023/01/05 09:51:14;;;;;;;32.58;8.73;;;9.20;99.90;;;;;;5044011;28;20084;-84
2023/01/05 09:53:40;;;;;;;34.88;6.47;;;9.20;99.90;;;;;;5045312;28;20045;-63
2023/01/05 09:56:21;;;;;;;25.65;6.57;;;9.20;99.90;;;;;;5046945;28;20073;-63
2023/01/05 09:58:48;;;;;;;39.63;10.98;;;9.20;99.90;;;;;;5047335;28;20040;-88
2023/01/05 10:01:16;;;;;;;37.92;9.63;;;9.30;99.90;;;;;;5044349;28;20038;-63
2023/01/05 10:03:58;;;;;;;31.23;7.07;;;9.30;99.90;;;;;;5048131;28;20403;-66
2023/01/05 10:06:39;;;;;;;34.53;8.82;;;9.30;99.90;;;;;;5025237;28;20684;-63
2023/01/05 10:09:08;;;;;;;22.98;4.15;;;9.30;99.90;;;;;;5047166;28;20545;-63
2023/01/05 10:15:00;;;;;;;14.57;3.03;;;9.30;99.90;;;;;;5040896;28;20697;-63
2023/01/05 10:17:29;;;;;;;17.48;3.10;;;9.40;99.90;;;;;;5046989;28;20128;-75
2023/01/05 10:19:55;;;;;;;28.45;6.63;;;9.30;99.90;;;;;;5046703;28;20067;-63
2023/01/05 10:22:52;;;;;;;24.08;4.97;;;9.30;99.90;;;;;;5046241;28;20471;-63
2023/01/05 10:25:41;;;;;;;17.38;2.58;;;9.20;99.90;;;;;;5039491;28;20064;-63
2023/01/05 10:28:24;;;;;;;19.87;4.43;;;9.20;99.90;;;;;;5046666;28;20048;-63
2023/01/05 10:31:09;;;;;;;22.80;3.50;;;9.20;99.90;;;;;;5044369;28;20299;-63
2023/01/05 10:33:55;;;;;;;20.95;2.92;;;9.30;99.90;;;;;;5009658;28;20048;-63
2023/01/05 10:36:31;;;;;;;15.93;2.38;;;9.40;99.90;;;;;;5025576;28;20567;-80
2023/01/05 10:39:18;;;;;;;14.88;1.88;;;9.40;99.90;;;;;;5046972;28;20037;-63
2023/01/05 10:41:44;;;;;;;18.67;2.50;;;9.40;99.90;;;;;;5025609;28;20047;-63
2023/01/05 10:44:43;;;;;;;7.25;1.00;;;9.40;99.90;;;;;;5045332;28;20390;-65
2023/01/05 10:47:10;;;;;;;16.30;2.17;;;9.50;99.90;;;;;;5042165;28;20044;-63
2023/01/05 10:49:38;;;;;;;19.77;2.30;;;9.50;99.90;;;;;;5051463;28;20135;-63
2023/01/05 10:52:11;;;;;;;21.10;2.75;;;9.50;99.90;;;;;;5028595;28;20052;-68
2023/01/05 10:54:55;;;;;;;16.80;2.35;;;9.50;99.90;;;;;;5043402;28;20510;-63
2023/01/05 10:57:35;;;;;;;14.40;2.13;;;9.60;99.90;;;;;;5044160;28;20119;-63
2023/01/05 11:00:04;;;;;;;13.95;2.53;;;9.50;99.90;;;;;;5028378;28;20550;-67
2023/01/05 11:02:56;;;;;;;11.23;1.67;;;9.50;99.90;;;;;;5021152;28;20045;-63
2023/01/05 11:05:35;;;;;;;15.52;1.90;;;9.50;99.90;;;;;;5045554;28;20037;-79
2023/01/05 11:08:04;;;;;;;13.88;1.98;;;9.50;99.90;;;;;;5047591;28;20064;-82
2023/01/05 11:10:38;;;;;;;15.52;2.00;;;9.50;99.90;;;;;;5045214;28;20049;-63
2023/01/05 11:13:18;;;;;;;14.10;2.42;;;9.50;99.90;;;;;;5046094;28;20063;-84
2023/01/05 11:15:55;;;;;;;10.18;1.77;;;9.50;99.90;;;;;;5044192;28;20037;-75
2023/01/05 11:18:35;;;;;;;12.43;1.95;;;9.60;99.90;;;;;;5044340;28;20518;-63
2023/01/05 11:21:06;;;;;;;13.65;2.10;;;9.60;99.90;;;;;;5045040;28;20106;-63
2023/01/05 11:23:36;;;;;;;13.60;2.33;;;9.60;99.90;;;;;;5025835;28;20045;-63
2023/01/05 11:26:18;;;;;;;12.77;1.73;;;9.60;99.90;;;;;;5044123;28;20041;-63
2023/01/05 11:29:08;;;;;;;16.65;2.55;;;9.60;99.90;;;;;;5045182;28;20132;-63
2023/01/05 11:31:37;;;;;;;14.20;2.30;;;9.60;99.90;;;;;;5044478;28;20382;-63
2023/01/05 11:34:45;;;;;;;13.35;2.15;;;9.50;99.90;;;;;;5046457;28;20094;-78
2023/01/05 11:37:11;;;;;;;19.98;3.20;;;9.50;99.90;;;;;;5036312;28;20594;-63
2023/01/05 11:39:45;;;;;;;17.10;1.70;;;9.60;99.90;;;;;;5043577;28;20045;-63
2023/01/05 11:42:18;;;;;;;13.07;2.72;;;9.60;99.90;;;;;;5024465;28;20045;-63
2023/01/05 11:44:51;;;;;;;11.30;2.42;;;9.60;99.90;;;;;;5043306;28;20115;-77
2023/01/05 11:47:42;;;;;;;19.20;2.25;;;9.60;99.90;;;;;;5034223;28;20063;-63
2023/01/05 11:50:11;;;;;;;9.52;1.50;;;9.60;99.90;;;;;;5008633;28;20061;-63
2023/01/05 11:52:49;;;;;;;18.10;2.55;;;9.60;99.90;;;;;;5016607;28;20415;-63
2023/01/05 11:55:36;;;;;;;12.82;2.17;;;9.60;99.90;;;;;;5023553;28;20049;-63
2023/01/05 11:58:23;;;;;;;16.40;2.45;;;9.60;99.90;;;;;;5022562;28;20068;-64
2023/01/05 12:01:01;;;;;;;25.27;3.17;;;9.60;99.90;;;;;;5021795;28;20041;-63
2023/01/05 12:03:53;;;;;;;13.95;2.13;;;9.60;99.90;;;;;;5016693;28;20458;-63
2023/01/05 12:06:31;;;;;;;14.63;2.22;;;9.60;99.90;;;;;;5013781;28;20038;-64
2023/01/05 12:09:21;;;;;;;19.88;2.00;;;9.60;99.90;;;;;;5018973;28;20041;-72
2023/01/05 12:11:50;;;;;;;;;;;9.60;99.90;;;;;;5013066;28;20045;-63
2023/01/05 12:14:29;;;;;;;13.90;1.52;;;9.60;99.90;;;;;;5025219;28;20387;-63
2023/01/05 12:16:55;;;;;;;14.85;2.15;;;9.60;99.90;;;;;;5023813;28;20099;-85
2023/01/05 12:19:27;;;;;;;12.13;2.33;;;9.70;99.90;;;;;;5025131;28;20376;-63
2023/01/05 12:22:11;;;;;;;18.60;3.08;;;9.70;99.90;;;;;;5025927;28;20080;-63
2023/01/05 12:25:05;;;;;;;19.25;3.72;;;9.70;99.90;;;;;;5023871;28;20140;-62
2023/01/05 12:27:36;;;;;;;20.05;2.80;;;9.70;99.90;;;;;;5024979;28;20049;-62
2023/01/05 12:30:09;;;;;;;19.23;2.35;;;9.70;99.90;;;;;;5024247;28;20049;-63
2023/01/05 12:33:21;;;;;;;18.00;3.10;;;9.70;99.90;;;;;;5022944;28;20188;-63
2023/01/05 12:36:03;;;;;;;23.50;3.15;;;9.80;99.90;;;;;;5016459;28;20053;-63
2023/01/05 12:38:51;;;;;;;12.75;2.42;;;9.70;99.90;;;;;;5025541;28;20045;-63
2023/01/05 12:41:25;;;;;;;19.27;2.50;;;9.70;99.90;;;;;;5023497;28;20125;-63
2023/01/05 12:44:22;;;;;;;20.60;3.28;;;9.70;99.90;;;;;;5022721;28;20803;-63
2023/01/05 12:46:48;;;;;;;21.10;5.10;;;9.70;99.90;;;;;;5022053;28;20057;-62
2023/01/05 12:49:26;;;;;;;14.68;4.13;;;9.60;99.90;;;;;;5030209;28;20064;-63
2023/01/05 12:52:03;;;;;;;27.00;6.70;;;9.50;99.90;;;;;;5045214;28;20045;-63
2023/01/05 12:54:50;;;;;;;28.40;6.20;;;9.50;99.90;;;;;;5040532;28;20041;-63
2023/01/05 12:57:33;;;;;;;22.45;3.65;;;9.50;99.90;;;;;;5021272;28;20554;-67
2023/01/05 13:00:14;;;;;;;26.13;3.40;;;9.50;99.90;;;;;;5039300;28;20462;-63
2023/01/05 13:02:54;;;;;;;20.75;2.13;;;9.50;99.90;;;;;;5038205;28;20112;-63
2023/01/05 13:05:43;;;;;;;17.23;3.63;;;9.60;99.90;;;;;;5026242;28;20041;-80
2023/01/05 13:08:28;;;;;;;22.55;4.97;;;9.50;99.90;;;;;;5043161;28;20437;-63
2023/01/05 13:11:00;;;;;;;21.08;5.65;;;9.60;99.90;;;;;;5041489;28;20040;-63
2023/01/05 13:13:36;;;;;;;13.27;2.65;;;9.60;99.90;;;;;;5026662;28;20418;-63
2023/01/05 13:16:18;;;;;;;19.83;5.07;;;9.60;99.90;;;;;;5040418;28;20055;-62
2023/01/05 13:19:01;;;;;;;14.68;2.80;;;9.60;99.90;;;;;;5026506;28;20048;-63
2023/01/05 13:21:29;;;;;;;12.05;3.10;;;9.70;99.90;;;;;;5041890;28;20037;-65
2023/01/05 13:24:04;;;;;;;15.57;2.15;;;9.70;99.90;;;;;;5043443;28;20037;-63
2023/01/05 13:26:31;;;;;;;14.38;2.00;;;9.70;99.90;;;;;;5042805;28;20049;-63
2023/01/05 13:28:59;;;;;;;13.80;3.13;;;9.70;99.90;;;;;;5027986;28;20076;-63
2023/01/05 13:31:40;;;;;;;15.73;2.03;;;9.70;99.90;;;;;;5043480;28;20499;-63
2023/01/05 13:34:33;;;;;;;14.10;2.30;;;9.70;99.90;;;;;;5046371;28;20079;-73
2023/01/05 13:36:58;;;;;;;11.77;1.58;;;9.70;99.90;;;;;;5038836;28;20408;-63
2023/01/05 13:39:24;;;;;;;18.65;2.53;;;9.70;99.90;;;;;;5047798;28;20043;-62
2023/01/05 13:42:24;;;;;;;12.60;2.22;;;9.70;99.90;;;;;;5044110;28;20479;-63
2023/01/05 13:45:18;;;;;;;10.10;1.70;;;9.70;99.90;;;;;;5029125;28;20111;-63
2023/01/05 13:48:09;;;;;;;18.65;2.20;;;9.70;99.90;;;;;;5040315;28;20041;-87